Historique des mesures à Cassis (13260), France
Quotidien Résumé Mai 2, 2017 Unités:  Métrique    US   Métrique/US
« Précédent (Jour)
Suivant (Jour) »
Quotidien Hebdomadaire Mensuel Annuel Période au choix
  Maximum: Minimum: Moyenne:
Température: TemperatureC °C 9.8 °C 12.7 °C
Point de rosée: DewpointC °C 4.1 °C 7.5 °C
Humidité: Humidity % 57 % 67 %
Vitesse du vent: 0 km/h 0 km/h 5.5 km/h
Rafales: 0 km/h - -
Vent:- - SSW
Pression: PressurehPa hPa 1014.4 hPa -
Précipitations: 2.0 mm    
Historical Graphs
 
 
Mesures pour : Mai 2, 2017
Heure Temperature Point de rosée Pression Vent Vitesse du vent Rafales Humidité Pluie (par heure) Conditions
TemperatureC °C DewpointC °C PressurehPa hPa Calm     Humidity % HourlyPrecipMM mm SoftwareType W/m2
00:10 12.9 °C 4.6 °C 1015.8 hPa NW 24.8 km/h 24.8 km/h 57 % 0.0 mm open2300-1.11 W/m2
01:10 12.1 °C 4.1 °C 1016.1 hPa NW 17.9 km/h 20.9 km/h 58 % 0.0 mm open2300-1.11 W/m2
02:10 11.8 °C 4.1 °C 1015.8 hPa North 8.9 km/h 27.7 km/h 59 % 0.0 mm open2300-1.11 W/m2
03:10 11.3 °C 4.5 °C 1015.8 hPa NW 26.7 km/h 26.7 km/h 63 % 0.0 mm open2300-1.11 W/m2
04:10 10.6 °C 4.3 °C 1015.8 hPa North 12.2 km/h 15 km/h 65 % 0.0 mm open2300-1.11 W/m2
05:10 9.8 °C 4.2 °C 1015.1 hPa Calm   5.1 km/h 68 % 0.0 mm open2300-1.11 W/m2
06:10 10.1 °C 4.2 °C 1015.5 hPa Calm   3.4 km/h 67 % 0.0 mm open2300-1.11 W/m2
07:10 9.9 °C 4.3 °C 1015.5 hPa Calm   3.4 km/h 68 % 0.0 mm open2300-1.11 W/m2
08:10 13.0 °C 5.8 °C 1015.8 hPa NE 6.4 km/h 6.4 km/h 62 % 0.0 mm open2300-1.11 W/m2
09:10 13.3 °C 6.2 °C 1015.8 hPa NNW 7.6 km/h 12.2 km/h 62 % 0.0 mm open2300-1.11 W/m2
10:10 14.3 °C 7.3 °C 1015.8 hPa Calm     63 % 0.0 mm open2300-1.11 W/m2
11:10 15.1 °C 7.9 °C 1015.8 hPa SSW 5.1 km/h 5.1 km/h 62 % 0.0 mm open2300-1.11 W/m2
12:10 15.3 °C 8.8 °C 1015.5 hPa Calm   11.6 km/h 65 % 0.0 mm open2300-1.11 W/m2
13:10 15.3 °C 9.9 °C 1015.8 hPa Calm     70 % 0.0 mm open2300-1.11 W/m2
14:10 15.2 °C 11.0 °C 1015.5 hPa Calm   6.4 km/h 76 % 0.0 mm open2300-1.11 W/m2
15:10 14.8 °C 11.2 °C 1015.5 hPa Calm   9.3 km/h 79 % 0.5 mm open2300-1.11 W/m2
16:10 14.9 °C 11.5 °C 1015.5 hPa North 6.4 km/h 20.9 km/h 80 % 0.0 mm open2300-1.11 W/m2
17:10 14.8 °C 11.4 °C 1015.5 hPa SW 8.9 km/h 8.9 km/h 80 % 1.0 mm open2300-1.11 W/m2
18:10 15.1 °C 11.7 °C 1015.1 hPa SSW 8 km/h 8.9 km/h 80 % 0.0 mm open2300-1.11 W/m2
19:10 15.1 °C 11.7 °C 1014.4 hPa SSW 2.3 km/h 9.8 km/h 80 % 0.0 mm open2300-1.11 W/m2
20:11 14.5 °C 10.9 °C 1014.8 hPa Calm   18.7 km/h 79 % 0.0 mm open2300-1.11 W/m2
21:11 13.2 °C 9.8 °C 1015.5 hPa Calm     80 % 0.0 mm open2300-1.11 W/m2
22:10 12.2 °C 9.1 °C 1015.8 hPa Calm     81 % 0.0 mm open2300-1.11 W/m2
23:11 11.8 °C 8.7 °C 1015.8 hPa NNW 2.3 km/h 2.3 km/h 81 % 0.0 mm open2300-1.11 W/m2
Observations météo à CASSIS
WU-History script by Weather Underground - 1 mb